Time;durP1;ratioP1;P1;durP2;ratioP2;P2;SDS_P1;SDS_P2;PMS_P1;PMS_P2;Temp;Humidity;BMP_temperature;BMP_pressure;BME280_temperature;BME280_humidity;BME280_pressure;Samples;Min_cycle;Max_cycle;Signal;HPM_P1;HPM_P2
2021/03/13 00:02:58;;;;;;;;;7.20;7.00;;;;;11.82;33.08;98086.88;6245673;27;126307;-60
2021/03/13 00:05:59;;;;;;;;;6.50;6.00;;;;;11.58;32.96;98051.16;6252884;27;126126;-61
2021/03/13 00:09:01;;;;;;;;;7.00;7.00;;;;;11.77;32.95;98084.94;6244283;27;124451;-59
2021/03/13 00:12:02;;;;;;;;;10.00;8.00;;;;;11.76;33.13;98087.88;6256902;27;126923;-59
2021/03/13 00:15:05;;;;;;;;;7.00;7.00;;;;;11.80;32.81;98094.41;6255696;27;125681;-59
2021/03/13 00:18:07;;;;;;;;;7.60;7.00;;;;;11.83;32.85;98091.19;6239571;27;124848;-59
2021/03/13 00:21:09;;;;;;;;;9.00;8.50;;;;;11.83;32.95;98085.78;6247275;27;126518;-59
2021/03/13 00:24:11;;;;;;;;;8.00;7.00;;;;;11.78;32.90;98073.03;6258696;27;125070;-59
2021/03/13 00:27:12;;;;;;;;;7.00;7.00;;;;;11.91;32.82;98079.97;6242028;27;127599;-59
2021/03/13 00:30:19;;;;;;;;;8.00;7.00;;;;;11.92;33.06;98073.53;6250836;27;126593;-61
2021/03/13 00:33:24;;;;;;;;;8.60;8.40;;;;;11.92;32.87;98066.25;6256296;27;124897;-61
2021/03/13 00:36:25;;;;;;;;;8.50;8.50;;;;;11.87;32.86;98065.34;6263157;27;125824;-59
2021/03/13 00:39:27;;;;;;;;;7.00;5.20;;;;;11.82;32.81;98060.69;6230843;27;126695;-59
2021/03/13 00:42:28;;;;;;;;;7.00;7.00;;;;;11.73;33.11;98060.28;6241476;27;126575;-59
2021/03/13 00:45:30;;;;;;;;;8.00;8.00;;;;;11.68;33.11;98053.97;6252555;27;125408;-61
2021/03/13 00:48:32;;;;;;;;;9.00;8.00;;;;;11.40;32.90;98006.34;6236967;27;126546;-59
2021/03/13 00:51:34;;;;;;;;;7.00;6.67;;;;;11.42;33.22;98019.59;6252159;27;125188;-61
2021/03/13 00:54:43;;;;;;;;;5.33;5.00;;;;;11.81;33.21;98058.25;6254300;27;125653;-61
2021/03/13 00:57:45;;;;;;;;;7.00;6.00;;;;;11.52;33.12;98014.34;6239104;27;125283;-61
2021/03/13 01:00:51;;;;;;;;;8.00;7.00;;;;;11.73;33.04;98054.06;6236116;27;125552;-61
2021/03/13 01:03:58;;;;;;;;;8.00;7.00;;;;;11.81;32.96;98061.75;6257360;27;124701;-61
2021/03/13 01:07:00;;;;;;;;;7.80;6.80;;;;;11.82;32.86;98057.19;6228237;27;125858;-61
2021/03/13 01:10:17;;;;;;;;;7.00;6.60;;;;;11.82;33.01;98044.50;6253139;27;125354;-59
2021/03/13 01:13:21;;;;;;;;;8.40;8.00;;;;;11.78;32.92;98051.44;6240614;27;125365;-61
2021/03/13 01:16:23;;;;;;;;;6.00;6.00;;;;;11.71;33.13;98048.91;6229583;27;124860;-61
2021/03/13 01:19:25;;;;;;;;;7.50;6.00;;;;;11.47;33.17;98004.28;6248079;27;126432;-59
2021/03/13 01:22:28;;;;;;;;;8.80;7.00;;;;;11.59;33.20;98009.56;6219279;28;123521;-59
2021/03/13 01:25:30;;;;;;;;;6.00;6.00;;;;;11.80;33.40;98037.69;6237201;27;125765;-61
2021/03/13 01:28:32;;;;;;;;;8.80;7.00;;;;;11.82;33.30;98030.19;6234936;27;126581;-61
2021/03/13 01:31:41;;;;;;;;;6.20;6.00;;;;;11.78;33.46;98029.84;6241139;27;124076;-61
2021/03/13 01:34:44;;;;;;;;;8.00;7.00;;;;;11.56;33.17;97991.19;6233080;27;125172;-61
2021/03/13 01:37:48;;;;;;;;;7.00;7.00;;;;;11.79;33.31;98019.84;6231843;27;125917;-61
2021/03/13 01:40:51;;;;;;;;;6.00;6.00;;;;;11.60;33.33;98003.94;6224161;27;125123;-62
2021/03/13 01:43:54;;;;;;;;;8.00;7.60;;;;;11.68;33.29;98030.50;6223291;27;126212;-59
2021/03/13 01:46:57;;;;;;;;;7.40;7.00;;;;;11.72;33.57;98017.31;6221890;27;124269;-59
2021/03/13 01:49:59;;;;;;;;;8.00;6.00;;;;;11.66;33.60;98016.44;6238913;27;125770;-59
2021/03/13 01:53:09;;;;;;;;;9.00;7.00;;;;;11.59;33.71;98025.75;6259008;27;124630;-59
2021/03/13 01:56:14;;;;;;;;;7.00;7.00;;;;;11.63;33.94;98022.31;6208963;28;124927;-61
2021/03/13 01:59:18;;;;;;;;;8.00;6.75;;;;;11.47;33.77;98019.66;6241314;27;126886;-59
2021/03/13 02:02:22;;;;;;;;;8.00;6.00;;;;;11.51;33.96;98024.31;6217421;27;126748;-59
2021/03/13 02:05:27;;;;;;;;;8.00;7.00;;;;;11.27;34.02;97967.06;6243960;27;124546;-59
2021/03/13 02:08:43;;;;;;;;;9.00;8.00;;;;;11.59;33.70;98020.38;6226170;27;126118;-61
2021/03/13 02:12:10;;;;;;;;;8.00;7.00;;;;;11.59;33.75;98020.38;6218622;27;126903;-61
2021/03/13 02:15:36;;;;;;;;;8.00;7.00;;;;;11.42;34.06;98012.31;6243771;27;125422;-61
2021/03/13 02:19:13;;;;;;;;;10.00;8.40;;;;;11.43;34.19;98008.56;6228634;27;124696;-61
2021/03/13 02:22:17;;;;;;;;;7.00;7.00;;;;;11.44;34.24;97993.97;6241102;27;126498;-61
2021/03/13 02:25:37;;;;;;;;;7.00;6.60;;;;;11.48;33.92;97997.84;6239005;27;126237;-61
2021/03/13 02:28:53;;;;;;;;;8.00;6.40;;;;;11.48;34.14;98002.41;6220410;27;125970;-61
2021/03/13 02:32:07;;;;;;;;;7.00;7.00;;;;;11.49;34.14;97991.34;6235451;27;124727;-61
2021/03/13 02:35:20;;;;;;;;;7.00;5.00;;;;;11.50;34.05;97989.47;6217864;27;126231;-61
2021/03/13 02:38:47;;;;;;;;;6.00;5.40;;;;;11.53;33.85;97994.38;6220554;27;126016;-61
2021/03/13 02:41:57;;;;;;;;;6.00;6.00;;;;;11.54;33.96;98004.09;6236597;27;125920;-61
2021/03/13 02:45:00;;;;;;;;;5.00;5.00;;;;;11.53;33.71;97989.78;6217445;28;126090;-61
2021/03/13 02:48:08;;;;;;;;;5.50;5.00;;;;;11.37;33.71;97968.25;6243560;27;123976;-61
2021/03/13 02:51:12;;;;;;;;;5.00;4.60;;;;;11.49;33.88;97982.44;6262938;27;126080;-61
2021/03/13 02:54:14;;;;;;;;;6.00;5.00;;;;;11.48;33.63;97984.34;6234510;27;124968;-61
2021/03/13 02:57:20;;;;;;;;;5.00;5.00;;;;;11.47;33.77;97989.97;6218865;27;124781;-61
2021/03/13 03:00:25;;;;;;;;;4.00;4.00;;;;;11.47;33.84;97980.00;6235789;27;125892;-61
2021/03/13 03:03:30;;;;;;;;;7.00;6.00;;;;;11.42;34.08;97976.41;6193114;28;125240;-61
2021/03/13 03:06:47;;;;;;;;;5.00;5.00;;;;;11.40;33.77;97973.97;6227073;27;126345;-61
2021/03/13 03:09:51;;;;;;;;;4.00;4.00;;;;;11.18;33.75;97925.38;6232740;27;127039;-61
2021/03/13 03:12:54;;;;;;;;;4.80;4.00;;;;;11.50;33.88;97962.47;6241783;27;125046;-61
2021/03/13 03:16:00;;;;;;;;;4.00;4.00;;;;;11.18;33.95;97925.38;6241537;27;126039;-61
2021/03/13 03:19:03;;;;;;;;;5.00;4.00;;;;;11.49;33.90;97969.75;6231278;27;126309;-61
2021/03/13 03:22:10;;;;;;;;;5.00;5.00;;;;;11.56;33.99;97965.00;6240820;27;125981;-58
2021/03/13 03:25:13;;;;;;;;;5.50;5.00;;;;;11.42;33.87;97962.94;6227404;27;124721;-61
2021/03/13 03:28:18;;;;;;;;;4.00;4.00;;;;;11.35;34.10;97963.09;6223095;27;125298;-61
2021/03/13 03:31:24;;;;;;;;;3.00;3.00;;;;;11.48;34.04;97953.84;6217862;27;127206;-59
2021/03/13 03:34:26;;;;;;;;;4.00;2.00;;;;;11.46;34.21;97956.78;6237394;27;124960;-59
2021/03/13 03:37:31;;;;;;;;;2.00;2.00;;;;;11.11;34.12;97911.25;6222217;27;126092;-59
2021/03/13 03:40:34;;;;;;;;;4.50;4.50;;;;;11.40;34.12;97948.84;6258313;27;126521;-59
2021/03/13 03:43:50;;;;;;;;;6.00;5.00;;;;;11.25;33.97;97917.91;6215049;27;124879;-59
2021/03/13 03:47:00;;;;;;;;;4.00;4.00;;;;;11.15;34.32;97925.03;6215485;27;123878;-61
2021/03/13 03:50:06;;;;;;;;;3.33;3.33;;;;;11.21;34.31;97919.47;6228002;27;124771;-61
2021/03/13 03:53:27;;;;;;;;;4.00;4.00;;;;;11.39;34.35;97939.94;6239456;27;126391;-61
2021/03/13 03:56:29;;;;;;;;;4.00;4.00;;;;;11.43;34.27;97930.31;6257771;27;125974;-61
2021/03/13 03:59:31;;;;;;;;;4.00;4.00;;;;;11.44;34.15;97931.91;6266933;27;125336;-60
2021/03/13 04:02:34;;;;;;;;;6.75;6.00;;;;;11.33;34.40;97932.88;6245892;27;125259;-61
2021/03/13 04:05:39;;;;;;;;;5.00;4.20;;;;;11.39;34.33;97926.44;6245725;27;126217;-61
2021/03/13 04:08:43;;;;;;;;;5.00;4.50;;;;;11.45;34.28;97919.22;6237974;27;125449;-61
2021/03/13 04:11:46;;;;;;;;;5.00;4.75;;;;;11.39;34.38;97920.22;6263946;27;124826;-61
2021/03/13 04:14:49;;;;;;;;;5.00;5.00;;;;;11.37;33.66;97907.00;6258234;27;126255;-61
2021/03/13 04:17:51;;;;;;;;;4.00;3.00;;;;;11.34;34.42;97907.50;6254368;27;125551;-61
2021/03/13 04:20:53;;;;;;;;;4.00;4.00;;;;;11.29;34.35;97888.53;6278687;27;126450;-61
2021/03/13 04:23:55;;;;;;;;;4.00;4.00;;;;;11.30;34.31;97899.09;6234069;27;126577;-61
2021/03/13 04:26:57;;;;;;;;;5.00;4.75;;;;;11.28;34.30;97892.31;6236839;27;126073;-61
2021/03/13 04:29:59;;;;;;;;;3.75;3.75;;;;;11.32;34.14;97892.63;6266187;27;126001;-61
2021/03/13 04:33:01;;;;;;;;;6.00;4.00;;;;;11.40;34.07;97897.56;6227542;27;125574;-61
2021/03/13 04:36:04;;;;;;;;;4.00;3.60;;;;;11.48;33.84;97894.47;6245699;27;125157;-61
2021/03/13 04:39:07;;;;;;;;;5.00;5.00;;;;;11.55;33.77;97890.50;6228496;27;125133;-61
2021/03/13 04:42:09;;;;;;;;;5.00;5.00;;;;;11.45;33.94;97903.03;6252319;27;125739;-61
2021/03/13 04:45:13;;;;;;;;;4.00;3.00;;;;;11.28;34.07;97876.94;6244763;27;124342;-60
2021/03/13 04:48:15;;;;;;;;;4.00;4.00;;;;;11.44;33.99;97894.13;6259666;27;125585;-61
2021/03/13 04:51:18;;;;;;;;;6.00;5.00;;;;;11.38;33.97;97888.94;6269060;27;125174;-61
2021/03/13 04:54:19;;;;;;;;;4.00;3.20;;;;;11.40;33.81;97887.59;6285132;27;126554;-61
2021/03/13 04:57:21;;;;;;;;;3.40;3.40;;;;;11.28;34.17;97876.94;6240226;27;126413;-61
2021/03/13 05:00:23;;;;;;;;;3.60;3.00;;;;;11.17;34.30;97875.19;6268442;27;126736;-61
2021/03/13 05:03:25;;;;;;;;;3.20;3.00;;;;;10.97;34.29;97809.38;6259525;27;126658;-61
2021/03/13 05:06:26;;;;;;;;;5.00;4.00;;;;;11.25;34.42;97858.56;6261910;27;126512;-61
2021/03/13 05:09:27;;;;;;;;;4.20;4.00;;;;;11.34;34.21;97853.53;6252104;27;127429;-61
2021/03/13 05:12:29;;;;;;;;;2.50;2.50;;;;;11.14;34.07;97840.59;6262242;27;125324;-61
2021/03/13 05:15:30;;;;;;;;;5.80;5.00;;;;;11.40;34.33;97857.09;6242319;27;124689;-61
2021/03/13 05:18:32;;;;;;;;;5.00;5.00;;;;;11.20;34.53;97841.47;6238262;27;128371;-61
2021/03/13 05:21:33;;;;;;;;;5.00;4.00;;;;;11.10;34.45;97838.66;6243700;27;126516;-61
2021/03/13 05:24:35;;;;;;;;;5.00;4.00;;;;;11.24;34.63;97859.59;6237014;28;126728;-61
2021/03/13 05:27:39;;;;;;;;;4.40;4.00;;;;;11.29;34.84;97851.56;6243124;27;127191;-61
2021/03/13 05:30:40;;;;;;;;;5.00;5.00;;;;;11.44;34.73;97850.94;6258646;27;124122;-61
2021/03/13 05:33:42;;;;;;;;;4.00;4.00;;;;;11.49;34.64;97848.31;6236048;27;126483;-61
2021/03/13 05:36:43;;;;;;;;;5.25;5.00;;;;;11.29;34.56;97815.69;6239320;27;127275;-61
2021/03/13 05:39:45;;;;;;;;;4.40;4.40;;;;;11.46;34.58;97850.69;6270882;27;126623;-61
2021/03/13 05:42:47;;;;;;;;;4.00;4.00;;;;;11.55;34.64;97850.00;6245921;27;125220;-60
2021/03/13 05:45:50;;;;;;;;;4.00;4.00;;;;;11.73;34.42;97850.78;6245766;27;125281;-61
2021/03/13 05:48:53;;;;;;;;;5.00;4.00;;;;;11.70;34.45;97841.25;6246120;27;126266;-61
2021/03/13 05:51:55;;;;;;;;;5.00;5.00;;;;;11.79;34.27;97847.03;6259942;27;127616;-61
2021/03/13 05:54:57;;;;;;;;;5.60;5.00;;;;;11.82;34.02;97852.75;6257242;27;125327;-61
2021/03/13 05:57:59;;;;;;;;;6.60;6.60;;;;;11.87;34.23;97852.00;6218962;27;125177;-61
2021/03/13 06:01:01;;;;;;;;;6.00;6.00;;;;;11.98;34.01;97853.72;6266794;27;125605;-61
2021/03/13 06:04:02;;;;;;;;;5.00;5.00;;;;;12.23;33.78;97853.94;6234463;27;126051;-61
2021/03/13 06:07:05;;;;;;;;;6.00;5.00;;;;;12.43;33.52;97856.00;6232868;27;125597;-61
2021/03/13 06:10:07;;;;;;;;;5.80;5.00;;;;;12.59;33.23;97860.47;6246889;27;124695;-60
2021/03/13 06:13:10;;;;;;;;;5.60;5.60;;;;;12.79;33.04;97862.50;6235783;27;125331;-61
2021/03/13 06:16:11;;;;;;;;;6.50;6.00;;;;;12.81;32.69;97836.78;6237132;27;126222;-61
2021/03/13 06:19:13;;;;;;;;;5.00;5.00;;;;;13.25;32.18;97875.22;6246941;27;125025;-61
2021/03/13 06:22:34;;;;;;;;;6.00;6.00;;;;;13.57;31.76;97871.56;6241645;27;125342;-61
2021/03/13 06:25:39;;;;;;;;;5.00;5.00;;;;;13.77;31.35;97882.47;6235709;28;123965;-61
2021/03/13 06:28:41;;;;;;;;;4.00;3.00;;;;;13.88;31.00;97882.22;6258462;27;124553;-61
2021/03/13 06:31:42;;;;;;;;;5.00;4.00;;;;;14.04;30.94;97883.06;6283402;27;125602;-61
2021/03/13 06:34:44;;;;;;;;;5.00;4.20;;;;;14.13;30.28;97888.78;6267852;27;124348;-61
2021/03/13 06:37:46;;;;;;;;;5.00;4.00;;;;;14.20;30.30;97895.56;6275450;27;125729;-61
2021/03/13 06:40:56;;;;;;;;;5.00;4.00;;;;;14.13;30.36;97889.59;6281037;27;127474;-61
2021/03/13 06:43:58;;;;;;;;;4.80;4.00;;;;;14.24;30.27;97901.28;6249036;27;124760;-61
2021/03/13 06:47:00;;;;;;;;;3.80;3.20;;;;;14.24;30.40;97896.66;6250409;27;124702;-61
2021/03/13 06:50:16;;;;;;;;;4.40;4.00;;;;;14.25;30.41;97886.63;6238439;27;125448;-61
2021/03/13 06:53:17;;;;;;;;;3.50;3.00;;;;;14.26;30.60;97899.13;6258267;27;127193;-61
2021/03/13 06:56:18;;;;;;;;;4.00;3.80;;;;;14.25;30.01;97881.22;6271532;27;125527;-61
2021/03/13 06:59:36;;;;;;;;;5.00;4.00;;;;;14.60;29.89;97904.84;6251691;27;127253;-61
2021/03/13 07:02:37;;;;;;;;;3.80;3.80;;;;;14.67;29.97;97916.25;6260791;27;127059;-61
2021/03/13 07:05:45;;;;;;;;;7.00;6.00;;;;;14.69;30.08;97911.38;6259446;27;124742;-61
2021/03/13 07:08:48;;;;;;;;;5.33;5.00;;;;;14.83;30.13;97917.06;6248442;27;124054;-61
2021/03/13 07:11:49;;;;;;;;;4.00;4.00;;;;;14.74;30.47;97916.78;6252031;27;127220;-61
2021/03/13 07:14:51;;;;;;;;;4.00;4.00;;;;;14.71;30.58;97907.28;6256807;27;123005;-61
2021/03/13 07:18:01;;;;;;;;;4.00;4.00;;;;;14.68;30.79;97898.88;6247148;27;129065;-61
2021/03/13 07:21:03;;;;;;;;;2.80;2.80;;;;;14.74;30.99;97924.94;6253147;27;125853;-61
2021/03/13 07:24:08;;;;;;;;;4.00;4.00;;;;;14.42;31.27;97908.91;6258853;27;125451;-59
2021/03/13 07:27:11;;;;;;;;;4.00;3.20;;;;;14.63;31.58;97928.72;6253293;27;126925;-62
2021/03/13 07:30:15;;;;;;;;;5.00;5.00;;;;;14.77;31.68;97931.69;6249688;27;126909;-59
2021/03/13 07:33:18;;;;;;;;;4.00;4.00;;;;;14.83;31.66;97928.72;6254024;27;125570;-61
2021/03/13 07:36:23;;;;;;;;;3.60;3.60;;;;;14.90;31.68;97942.84;6250663;27;126864;-61
2021/03/13 07:39:47;;;;;;;;;3.00;2.60;;;;;14.81;31.83;97933.59;6246292;27;124879;-60
2021/03/13 07:42:49;;;;;;;;;5.00;4.00;;;;;14.78;32.16;97939.56;6258309;27;126027;-61
2021/03/13 07:45:52;;;;;;;;;4.00;3.80;;;;;14.98;31.93;97930.59;6256912;27;127704;-61
2021/03/13 07:48:54;;;;;;;;;3.20;3.00;;;;;15.14;31.84;97938.47;6244452;27;126600;-61
2021/03/13 07:51:59;;;;;;;;;3.00;3.00;;;;;15.43;31.63;97948.72;6254747;27;126521;-61
2021/03/13 07:55:03;;;;;;;;;5.00;5.00;;;;;15.36;31.11;97907.44;6255979;27;126154;-61
2021/03/13 07:58:08;;;;;;;;;4.25;3.25;;;;;15.88;30.97;97948.59;6242745;27;126252;-61
2021/03/13 08:01:12;;;;;;;;;4.40;4.40;;;;;15.45;30.72;97833.28;6255685;27;124770;-59
2021/03/13 08:04:52;;;;;;;;;4.60;4.00;;;;;17.02;29.43;97948.41;6251119;27;126582;-61
2021/03/13 08:08:03;;;;;;;;;4.00;3.40;;;;;18.09;27.93;97948.88;6239095;27;125890;-59
2021/03/13 08:11:07;;;;;;;;;3.00;3.00;;;;;18.74;27.02;97943.63;6256946;27;125703;-59
2021/03/13 08:14:09;;;;;;;;;4.20;4.20;;;;;19.37;26.48;97949.38;6257368;27;127250;-59
2021/03/13 08:17:11;;;;;;;;;4.40;4.00;;;;;20.36;25.38;97932.38;6251922;27;126776;-59
2021/03/13 08:20:13;;;;;;;;;5.00;5.00;;;;;21.67;23.67;97944.72;6255865;27;126314;-61
2021/03/13 08:23:14;;;;;;;;;4.33;4.00;;;;;22.73;22.74;97947.09;6262950;27;128149;-59
2021/03/13 08:26:20;;;;;;;;;6.40;5.60;;;;;23.86;21.57;97953.97;6262748;27;126405;-59
2021/03/13 08:29:49;;;;;;;;;6.00;5.60;;;;;24.48;20.79;97941.16;6248858;27;126651;-59
2021/03/13 08:33:05;;;;;;;;;4.00;3.00;;;;;24.96;20.01;97940.66;6262589;27;126445;-60
2021/03/13 08:36:17;;;;;;;;;4.00;3.40;;;;;25.47;19.43;97946.78;6253195;27;126056;-60
2021/03/13 08:39:24;;;;;;;;;5.00;5.00;;;;;25.73;18.86;97939.06;6249413;27;126849;-60
2021/03/13 08:42:30;;;;;;;;;5.00;5.00;;;;;25.14;19.39;97904.63;6262108;27;127029;-60
2021/03/13 08:45:35;;;;;;;;;5.00;5.00;;;;;25.86;19.07;97932.38;6261519;27;125959;-60
2021/03/13 08:48:56;;;;;;;;;4.00;4.00;;;;;25.90;18.67;97940.00;6250632;27;126165;-60
2021/03/13 08:52:04;;;;;;;;;5.00;4.50;;;;;26.66;18.57;97942.81;6262294;27;125995;-60
2021/03/13 08:55:06;;;;;;;;;4.00;3.75;;;;;27.45;17.63;97941.13;6261422;27;124866;-58
2021/03/13 08:58:07;;;;;;;;;4.00;4.00;;;;;27.96;17.09;97945.63;6250198;27;126664;-57
2021/03/13 09:01:17;;;;;;;;;3.00;3.00;;;;;28.65;16.28;97944.09;6261638;27;125575;-57
2021/03/13 09:04:22;;;;;;;;;4.40;4.00;;;;;29.17;15.86;97948.38;6260123;27;124939;-58
2021/03/13 09:07:23;;;;;;;;;4.00;3.00;;;;;28.73;16.25;97956.19;6253381;27;126969;-58
2021/03/13 09:10:25;;;;;;;;;4.00;4.00;;;;;29.00;15.95;97957.13;6257757;27;126371;-58
2021/03/13 09:13:26;;;;;;;;;4.00;4.00;;;;;29.32;15.45;97953.09;6261847;27;126534;-59
2021/03/13 09:16:36;;;;;;;;;3.75;3.00;;;;;29.37;15.32;97954.75;6261699;27;127751;-59
2021/03/13 09:19:39;;;;;;;;;4.00;4.00;;;;;29.16;15.51;97935.66;6252312;27;124885;-57
2021/03/13 09:22:43;;;;;;;;;3.00;3.00;;;;;29.18;15.63;97949.97;6261823;27;127401;-57
2021/03/13 09:25:45;;;;;;;;;4.00;4.00;;;;;29.47;15.75;97946.59;6259495;27;126633;-57
2021/03/13 09:28:47;;;;;;;;;3.00;3.00;;;;;29.43;15.64;97945.72;6242391;27;125968;-57
2021/03/13 09:31:54;;;;;;;;;3.00;3.00;;;;;29.30;15.56;97958.16;6260074;27;127464;-59
2021/03/13 09:34:56;;;;;;;;;4.00;3.00;;;;;28.94;15.29;97955.81;6257810;27;125683;-57
2021/03/13 09:37:58;;;;;;;;;3.00;3.00;;;;;29.56;15.11;97938.84;6240525;27;125234;-57
2021/03/13 09:40:59;;;;;;;;;2.00;2.00;;;;;29.45;15.29;97948.16;6259041;27;128689;-57
2021/03/13 09:44:00;;;;;;;;;3.00;2.80;;;;;28.27;15.49;97894.94;6259351;27;127319;-57
2021/03/13 09:47:09;;;;;;;;;3.00;3.00;;;;;28.21;16.04;97957.34;6256135;27;127655;-57
2021/03/13 09:50:24;;;;;;;;;3.00;3.00;;;;;27.96;16.26;97934.53;6252452;27;125135;-58
2021/03/13 09:53:25;;;;;;;;;2.60;2.00;;;;;27.83;16.20;97929.47;6256984;27;127254;-57
2021/03/13 09:56:29;;;;;;;;;4.00;4.00;;;;;28.20;16.14;97933.56;6258295;27;125360;-57
2021/03/13 09:59:31;;;;;;;;;2.00;2.00;;;;;28.30;16.00;97921.09;6249264;27;126266;-59
2021/03/13 10:02:32;;;;;;;;;2.50;2.50;;;;;27.08;16.61;97932.19;6254642;27;128359;-59
2021/03/13 10:05:34;;;;;;;;;3.00;2.40;;;;;25.69;17.69;97932.59;6257183;27;126234;-59
2021/03/13 10:08:37;;;;;;;;;4.00;3.40;;;;;24.79;18.64;97921.47;6244098;27;126473;-59
2021/03/13 10:11:41;;;;;;;;;3.00;3.00;;;;;24.85;18.84;97916.56;6258038;27;127262;-59
2021/03/13 10:14:43;;;;;;;;;4.00;3.00;;;;;24.92;18.71;97920.41;6256644;27;126888;-59
2021/03/13 10:17:52;;;;;;;;;4.00;3.00;;;;;24.94;19.31;97920.88;6248604;27;127061;-59
2021/03/13 10:20:59;;;;;;;;;2.00;2.00;;;;;25.51;18.90;97898.03;6254743;27;126514;-59
2021/03/13 10:24:01;;;;;;;;;3.00;3.00;;;;;25.94;18.47;97899.47;6257115;27;126231;-59
2021/03/13 10:27:06;;;;;;;;;4.00;4.00;;;;;26.54;17.91;97907.69;6254128;27;126562;-59
2021/03/13 10:30:09;;;;;;;;;3.00;3.00;;;;;26.21;17.90;97907.03;6249777;27;126038;-59
2021/03/13 10:33:11;;;;;;;;;3.00;3.00;;;;;25.88;18.44;97908.00;6252311;27;126675;-59
2021/03/13 10:36:15;;;;;;;;;4.25;3.25;;;;;25.45;18.72;97916.78;6250771;27;124291;-59
2021/03/13 10:39:18;;;;;;;;;4.00;4.00;;;;;24.47;19.69;97903.75;6245098;27;126063;-57
2021/03/13 10:42:23;;;;;;;;;3.00;3.00;;;;;23.90;20.57;97897.13;6256012;27;125789;-59
2021/03/13 10:45:24;;;;;;;;;3.60;3.00;;;;;22.86;21.13;97899.41;6257915;27;123857;-59
2021/03/13 10:48:34;;;;;;;;;4.00;4.00;;;;;22.68;21.96;97878.53;6248340;27;126649;-59
2021/03/13 10:51:41;;;;;;;;;3.60;2.60;;;;;23.53;21.28;97883.06;6259476;27;126290;-57
2021/03/13 10:54:46;;;;;;;;;5.00;4.40;;;;;24.14;20.81;97886.31;6257210;27;125436;-59
2021/03/13 10:58:08;;;;;;;;;4.00;4.00;;;;;24.67;20.24;97885.59;6242656;27;126835;-57
2021/03/13 11:01:09;;;;;;;;;4.00;4.00;;;;;24.96;19.73;97857.94;6260810;27;126380;-57
2021/03/13 11:04:11;;;;;;;;;5.00;4.00;;;;;25.63;19.07;97869.69;6257453;27;125614;-59
2021/03/13 11:07:14;;;;;;;;;3.00;3.00;;;;;25.93;18.77;97867.50;6254205;27;126576;-58
2021/03/13 11:10:16;;;;;;;;;3.00;3.00;;;;;26.27;18.34;97869.78;6253806;27;126167;-59
2021/03/13 11:13:18;;;;;;;;;6.00;4.40;;;;;26.94;17.73;97863.44;6259948;27;127438;-59
2021/03/13 11:16:23;;;;;;;;;5.00;4.00;;;;;26.46;17.97;97819.41;6247964;27;127362;-58
2021/03/13 11:19:26;;;;;;;;;3.00;3.00;;;;;27.01;17.70;97849.81;6242491;27;126160;-58
2021/03/13 11:22:27;;;;;;;;;4.00;4.00;;;;;27.76;17.24;97854.53;6258342;27;126538;-58
2021/03/13 11:25:28;;;;;;;;;4.00;3.60;;;;;27.56;16.95;97843.34;6258389;27;125248;-58
2021/03/13 11:28:30;;;;;;;;;4.00;4.00;;;;;27.23;16.82;97845.63;6246835;27;127957;-58
2021/03/13 11:31:32;;;;;;;;;3.00;3.00;;;;;27.22;17.23;97854.31;6251332;27;127014;-58
2021/03/13 11:34:34;;;;;;;;;4.40;4.00;;;;;26.73;17.43;97857.31;6254172;27;126404;-59
2021/03/13 11:37:36;;;;;;;;;2.40;2.40;;;;;25.53;18.28;97875.63;6249888;27;125395;-59
2021/03/13 11:40:37;;;;;;;;;3.00;3.00;;;;;25.70;18.30;97834.84;6255292;27;126546;-58
2021/03/13 11:43:42;;;;;;;;;2.00;2.00;;;;;25.68;18.21;97828.03;6258913;27;125263;-58
2021/03/13 11:46:44;;;;;;;;;4.00;3.00;;;;;25.71;18.19;97819.88;6248809;27;123817;-58
2021/03/13 11:49:45;;;;;;;;;3.00;3.00;;;;;25.73;17.60;97761.56;6243233;27;126419;-58
2021/03/13 11:52:47;;;;;;;;;2.00;2.00;;;;;25.85;18.46;97798.22;6255479;27;126640;-58
2021/03/13 11:55:49;;;;;;;;;3.00;2.00;;;;;25.62;17.97;97783.31;6258912;27;128975;-58
2021/03/13 11:58:50;;;;;;;;;4.00;4.00;;;;;25.70;17.72;97759.50;6247030;27;126761;-58
2021/03/13 12:01:52;;;;;;;;;2.00;2.00;;;;;25.97;17.38;97769.78;6257099;27;125596;-58
2021/03/13 12:04:53;;;;;;;;;5.00;4.00;;;;;25.89;17.60;97776.25;6241495;27;126517;-57
2021/03/13 12:07:55;;;;;;;;;4.40;4.00;;;;;25.87;17.73;97778.56;6217410;27;126312;-59
2021/03/13 12:10:57;;;;;;;;;3.00;3.00;;;;;25.61;18.01;97765.13;6220373;27;127598;-59
2021/03/13 12:13:58;;;;;;;;;2.60;2.60;;;;;25.24;18.34;97761.56;6243283;27;125844;-59
2021/03/13 12:17:01;;;;;;;;;3.60;3.60;;;;;25.08;18.49;97760.63;6230828;27;127039;-59
2021/03/13 12:20:08;;;;;;;;;3.60;3.60;;;;;24.80;18.77;97762.41;6231554;27;125080;-58
2021/03/13 12:23:09;;;;;;;;;4.00;4.00;;;;;23.96;19.28;97720.44;6233642;27;124079;-58
2021/03/13 12:26:10;;;;;;;;;3.00;3.00;;;;;23.18;20.34;97747.63;6236507;27;125241;-58
2021/03/13 12:29:12;;;;;;;;;2.00;2.00;;;;;22.94;20.47;97738.38;6208051;27;125213;-59
2021/03/13 12:32:14;;;;;;;;;3.00;2.00;;;;;22.55;20.78;97755.91;6222453;28;126471;-58
2021/03/13 12:35:16;;;;;;;;;4.00;4.00;;;;;22.42;20.64;97742.06;6247210;27;127282;-58
2021/03/13 12:38:17;;;;;;;;;3.80;2.20;;;;;22.82;20.18;97728.09;6219042;27;126501;-58
2021/03/13 12:41:35;;;;;;;;;4.00;4.00;;;;;22.84;20.18;97748.59;6218614;28;127293;-58
2021/03/13 12:44:37;;;;;;;;;3.00;3.00;;;;;22.69;20.65;97718.06;6233703;27;126863;-58
2021/03/13 12:47:38;;;;;;;;;2.75;2.00;;;;;22.36;20.51;97737.88;6236237;27;128150;-58
2021/03/13 12:50:42;;;;;;;;;5.00;4.00;;;;;22.26;20.79;97715.44;6231957;27;126462;-58
2021/03/13 12:53:46;;;;;;;;;4.00;3.00;;;;;21.96;21.10;97714.50;6234508;27;127022;-58
2021/03/13 12:56:47;;;;;;;;;2.00;2.00;;;;;21.64;21.63;97717.72;6230753;27;125906;-58
2021/03/13 12:59:48;;;;;;;;;2.00;2.00;;;;;21.45;21.94;97707.03;6241168;27;124888;-58
2021/03/13 13:02:50;;;;;;;;;2.00;2.00;;;;;21.27;21.99;97695.22;6228610;27;126813;-58
2021/03/13 13:05:51;;;;;;;;;3.20;2.00;;;;;21.36;22.15;97693.31;6216036;28;126439;-58
2021/03/13 13:08:54;;;;;;;;;2.00;2.00;;;;;21.33;21.89;97680.25;6221622;27;126284;-58
2021/03/13 13:11:55;;;;;;;;;4.00;3.60;;;;;21.18;22.15;97670.56;6236327;27;125234;-58
2021/03/13 13:14:57;;;;;;;;;2.00;2.00;;;;;21.06;22.47;97675.03;6230104;27;125366;-59
2021/03/13 13:17:58;;;;;;;;;3.00;2.80;;;;;20.26;22.53;97676.13;6215218;27;126281;-58
2021/03/13 13:21:00;;;;;;;;;4.00;4.00;;;;;20.25;22.92;97679.97;6232174;28;127477;-58
2021/03/13 13:24:01;;;;;;;;;3.00;3.00;;;;;20.18;23.29;97655.00;6234995;28;126594;-58
2021/03/13 13:27:03;;;;;;;;;4.00;4.00;;;;;20.02;23.21;97675.66;6230445;27;126883;-58
2021/03/13 13:30:08;;;;;;;;;4.80;4.00;;;;;19.77;23.54;97671.63;6227243;28;125443;-58
2021/03/13 13:33:11;;;;;;;;;2.60;2.60;;;;;19.20;23.74;97689.56;6232518;28;125946;-58
2021/03/13 13:36:17;;;;;;;;;5.00;4.00;;;;;18.95;24.41;97669.88;6246157;27;124896;-58
2021/03/13 13:39:18;;;;;;;;;4.00;4.00;;;;;18.76;24.54;97676.56;6218561;28;124853;-58
2021/03/13 13:42:19;;;;;;;;;5.00;5.00;;;;;18.80;24.75;97667.47;6233922;27;125306;-58
2021/03/13 13:45:21;;;;;;;;;6.00;5.00;;;;;18.81;24.90;97671.81;6245093;27;127318;-58
2021/03/13 13:48:22;;;;;;;;;5.60;4.60;;;;;18.59;25.07;97663.53;6237798;27;126542;-58
2021/03/13 13:51:26;;;;;;;;;4.00;4.00;;;;;18.54;25.22;97647.25;6243527;27;124756;-58
2021/03/13 13:54:28;;;;;;;;;5.00;5.00;;;;;18.66;25.28;97671.31;6250363;27;127857;-58
2021/03/13 13:57:31;;;;;;;;;5.00;5.00;;;;;18.67;25.25;97645.63;6227120;27;128798;-58
2021/03/13 14:00:33;;;;;;;;;4.75;4.75;;;;;18.67;25.35;97654.59;6227496;27;124600;-58
2021/03/13 14:03:36;;;;;;;;;4.00;4.00;;;;;18.43;25.00;97651.25;6235055;27;124805;-58
2021/03/13 14:06:38;;;;;;;;;3.00;3.00;;;;;18.37;25.32;97649.75;6264875;27;127304;-59
2021/03/13 14:09:40;;;;;;;;;3.50;3.50;;;;;18.34;25.74;97653.88;6255394;27;126645;-59
2021/03/13 14:12:41;;;;;;;;;3.00;3.00;;;;;18.48;26.12;97664.78;6238084;27;128500;-59
2021/03/13 14:15:43;;;;;;;;;2.40;2.40;;;;;18.30;25.79;97649.31;6253510;27;124472;-59
2021/03/13 14:18:45;;;;;;;;;2.00;2.00;;;;;17.97;26.00;97627.56;6250640;27;126580;-59